KSPA/SPA METAR and TAF weather

Enter ICAO airport designator
Station Type Date Time Source
KSPA METAR 2021/01/22 05:55 UTC NOAA

KSPA 220555Z AUTO 00000KT 10SM CLR 07/M01 A2989 RMK AO2


Station Type Date Time Source
KSPA Decoded METAR 2021/01/22 05:55 UTC NOAA

Spartanburg Memorial, SC, United States (KSPA) 34-55N 081-57W
Jan 22, 2021 - 12:55 AM EST / 2021.01.22 0555 UTC
Wind: Calm:0
Visibility: 10 mile(s):0
Sky conditions: clear
Temperature: 44 F (7 C)
Dew Point: 30 F (-1 C)
Relative Humidity: 56%
Pressure (altimeter): 29.89 in. Hg (1012 hPa)
ob: KSPA 220555Z AUTO 00000KT 10SM CLR 07/M01 A2989 RMK AO2
cycle: 6

Station Type Date Time Source
KSPA TAF UTC NOAA

Error!

Example: see airport list